Time;durP1;ratioP1;P1;durP2;ratioP2;P2;SDS_P1;SDS_P2;PMS_P1;PMS_P2;Temp;Humidity;BMP_temperature;BMP_pressure;BME280_temperature;BME280_humidity;BME280_pressure;Samples;Min_cycle;Max_cycle;Signal;HPM_P1;HPM_P2
2021/09/13 00:02:02;;;;;;;5.00;2.97;;;;;;;;;;5073680;28;20291;-73
2021/09/13 00:04:30;;;;;;;5.50;2.97;;;;;;;;;;5075651;28;20489;-73
2021/09/13 00:06:57;;;;;;;4.87;2.80;;;;;;;;;;5073430;28;20264;-73
2021/09/13 00:09:24;;;;;;;4.20;2.87;;;;;;;;;;5076039;28;20622;-73
2021/09/13 00:11:51;;;;;;;4.87;2.67;;;;;;;;;;5075268;28;20647;-73
2021/09/13 00:14:17;;;;;;;5.00;2.30;;;;;;;;;;5073610;28;20220;-73
2021/09/13 00:16:44;;;;;;;6.87;2.93;;;;;;;;;;5075864;28;20742;-73
2021/09/13 00:19:10;;;;;;;7.43;2.60;;;;;;;;;;5074685;28;20302;-73
2021/09/13 00:21:38;;;;;;;7.33;2.77;;;;;;;;;;5074747;28;20205;-73
2021/09/13 00:24:05;;;;;;;7.83;2.80;;;;;;;;;;5071251;28;20255;-74
2021/09/13 00:26:31;;;;;;;10.50;2.53;;;;;;;;;;5075473;28;20213;-73
2021/09/13 00:28:58;;;;;;;6.67;2.30;;;;;;;;;;5073361;28;20753;-73
2021/09/13 00:31:24;;;;;;;5.53;2.53;;;;;;;;;;5074614;28;20855;-73
2021/09/13 00:33:50;;;;;;;6.10;2.80;;;;;;;;;;5074086;28;20214;-73
2021/09/13 00:36:17;;;;;;;8.70;3.03;;;;;;;;;;5074594;28;20218;-73
2021/09/13 00:38:44;;;;;;;7.00;1.97;;;;;;;;;;5075349;28;20231;-73
2021/09/13 00:41:11;;;;;;;3.53;2.07;;;;;;;;;;5073107;28;20222;-73
2021/09/13 00:43:37;;;;;;;5.70;1.97;;;;;;;;;;5073802;28;20208;-73
2021/09/13 00:46:04;;;;;;;4.60;2.00;;;;;;;;;;5075829;28;21117;-73
2021/09/13 00:48:31;;;;;;;4.83;1.30;;;;;;;;;;5074770;28;20226;-73
2021/09/13 00:50:57;;;;;;;6.07;1.50;;;;;;;;;;5075569;28;20267;-73
2021/09/13 00:53:25;;;;;;;4.60;1.90;;;;;;;;;;5074551;28;20519;-73
2021/09/13 00:55:54;;;;;;;3.80;1.90;;;;;;;;;;5071804;28;20554;-73
2021/09/13 00:58:21;;;;;;;8.87;1.90;;;;;;;;;;5074141;28;20237;-73
2021/09/13 01:00:47;;;;;;;6.93;2.07;;;;;;;;;;5074173;28;21216;-73
2021/09/13 01:03:13;;;;;;;9.03;2.20;;;;;;;;;;5074008;28;20620;-73
2021/09/13 01:05:40;;;;;;;7.63;2.10;;;;;;;;;;5074586;28;20215;-73
2021/09/13 01:08:06;;;;;;;8.33;2.20;;;;;;;;;;5073003;28;20217;-73
2021/09/13 01:10:32;;;;;;;5.03;2.43;;;;;;;;;;5074258;28;20217;-73
2021/09/13 01:13:00;;;;;;;6.77;2.57;;;;;;;;;;5075705;28;20652;-73
2021/09/13 01:15:27;;;;;;;5.40;2.30;;;;;;;;;;5075859;28;20211;-73
2021/09/13 01:17:53;;;;;;;5.30;2.80;;;;;;;;;;5073644;28;20309;-73
2021/09/13 01:20:22;;;;;;;4.30;2.77;;;;;;;;;;5074909;28;20218;-73
2021/09/13 01:22:54;;;;;;;8.27;2.87;;;;;;;;;;5073466;28;20212;-73
2021/09/13 01:25:21;;;;;;;8.10;2.60;;;;;;;;;;5073020;28;20214;-73
2021/09/13 01:27:48;;;;;;;6.73;3.00;;;;;;;;;;5072650;28;20222;-73
2021/09/13 01:30:14;;;;;;;7.10;2.87;;;;;;;;;;5074046;28;20218;-73
2021/09/13 01:32:41;;;;;;;8.37;3.03;;;;;;;;;;5073102;28;20231;-73
2021/09/13 01:35:09;;;;;;;6.00;2.70;;;;;;;;;;5075354;28;20214;-73
2021/09/13 01:37:35;;;;;;;7.20;2.67;;;;;;;;;;5076390;28;20225;-73
2021/09/13 01:40:01;;;;;;;5.10;2.63;;;;;;;;;;5079641;28;20284;-73
2021/09/13 01:42:29;;;;;;;7.63;2.60;;;;;;;;;;5076572;28;20222;-73
2021/09/13 01:44:55;;;;;;;6.83;3.00;;;;;;;;;;5076032;28;20243;-73
2021/09/13 01:47:22;;;;;;;6.67;3.07;;;;;;;;;;5078137;28;20228;-73
2021/09/13 01:49:48;;;;;;;5.20;2.53;;;;;;;;;;5077421;28;20264;-73
2021/09/13 01:52:15;;;;;;;5.20;2.40;;;;;;;;;;5078970;28;20215;-73
2021/09/13 01:54:41;;;;;;;8.10;2.80;;;;;;;;;;5074903;28;20258;-73
2021/09/13 01:57:08;;;;;;;7.70;2.80;;;;;;;;;;5075683;28;20218;-73
2021/09/13 01:59:35;;;;;;;5.63;2.33;;;;;;;;;;5077107;28;20308;-73
2021/09/13 02:02:02;;;;;;;6.73;2.80;;;;;;;;;;5076339;28;20909;-73
2021/09/13 02:04:29;;;;;;;6.67;3.00;;;;;;;;;;5078652;28;20211;-73
2021/09/13 02:06:56;;;;;;;5.73;2.87;;;;;;;;;;5077786;28;20221;-73
2021/09/13 02:09:22;;;;;;;5.73;2.37;;;;;;;;;;5075821;28;20658;-73
2021/09/13 02:11:48;;;;;;;6.40;3.20;;;;;;;;;;5076345;28;20214;-73
2021/09/13 02:14:15;;;;;;;6.47;2.63;;;;;;;;;;5076391;28;20214;-73
2021/09/13 02:16:42;;;;;;;9.87;2.97;;;;;;;;;;5076810;28;20277;-73
2021/09/13 02:19:09;;;;;;;3.83;2.40;;;;;;;;;;5075210;28;20643;-73
2021/09/13 02:21:35;;;;;;;7.43;2.53;;;;;;;;;;5076093;28;21068;-73
2021/09/13 02:24:02;;;;;;;8.03;2.60;;;;;;;;;;5074743;28;20356;-73
2021/09/13 02:26:28;;;;;;;5.73;2.87;;;;;;;;;;5076629;28;20213;-73
2021/09/13 02:28:54;;;;;;;8.87;2.77;;;;;;;;;;5077676;28;20213;-73
2021/09/13 02:31:21;;;;;;;5.43;2.70;;;;;;;;;;5077566;28;20572;-73
2021/09/13 02:33:49;;;;;;;6.47;2.83;;;;;;;;;;5076966;28;20274;-73
2021/09/13 02:36:15;;;;;;;7.60;2.33;;;;;;;;;;5075961;28;20622;-73
2021/09/13 02:38:41;;;;;;;7.70;2.77;;;;;;;;;;5076961;28;20289;-73
2021/09/13 02:41:08;;;;;;;6.90;3.03;;;;;;;;;;5077180;28;20360;-73
2021/09/13 02:43:34;;;;;;;10.20;3.23;;;;;;;;;;5076933;28;20219;-73
2021/09/13 02:46:01;;;;;;;8.60;2.57;;;;;;;;;;5076165;28;20217;-73
2021/09/13 02:48:28;;;;;;;5.07;2.77;;;;;;;;;;5076419;28;20242;-73
2021/09/13 02:50:56;;;;;;;6.27;2.87;;;;;;;;;;5075949;28;20212;-73
2021/09/13 02:53:22;;;;;;;5.10;2.53;;;;;;;;;;5073701;28;20216;-73
2021/09/13 02:55:48;;;;;;;7.67;2.70;;;;;;;;;;5076178;28;20275;-73
2021/09/13 02:58:15;;;;;;;8.30;3.10;;;;;;;;;;5077487;28;20214;-73
2021/09/13 03:00:41;;;;;;;8.90;3.00;;;;;;;;;;5074442;28;20248;-73
2021/09/13 03:03:08;;;;;;;7.53;3.00;;;;;;;;;;5078142;28;20280;-73
2021/09/13 03:05:34;;;;;;;8.13;2.80;;;;;;;;;;5076014;28;20220;-74
2021/09/13 03:08:02;;;;;;;10.40;2.97;;;;;;;;;;5074445;28;20263;-73
2021/09/13 03:10:28;;;;;;;5.43;3.23;;;;;;;;;;5076472;28;20225;-73
2021/09/13 03:12:54;;;;;;;10.63;3.20;;;;;;;;;;5076612;28;20607;-73
2021/09/13 03:15:21;;;;;;;5.63;3.13;;;;;;;;;;5074608;28;20212;-73
2021/09/13 03:17:47;;;;;;;8.60;3.17;;;;;;;;;;5075824;28;20646;-73
2021/09/13 03:20:14;;;;;;;8.40;3.37;;;;;;;;;;5075876;28;20236;-73
2021/09/13 03:22:40;;;;;;;8.90;3.30;;;;;;;;;;5076121;28;20218;-73
2021/09/13 03:25:09;;;;;;;9.70;3.13;;;;;;;;;;5075214;28;20276;-73
2021/09/13 03:27:36;;;;;;;6.03;3.07;;;;;;;;;;5074562;28;20219;-73
2021/09/13 03:30:03;;;;;;;5.10;2.90;;;;;;;;;;5074578;28;20211;-73
2021/09/13 03:32:29;;;;;;;9.67;3.10;;;;;;;;;;5074221;28;20757;-73
2021/09/13 03:34:56;;;;;;;8.70;3.40;;;;;;;;;;5074131;28;20717;-72
2021/09/13 03:37:22;;;;;;;6.90;2.83;;;;;;;;;;5073302;28;20233;-72
2021/09/13 03:39:48;;;;;;;8.23;3.47;;;;;;;;;;5075296;28;20236;-73
2021/09/13 03:42:16;;;;;;;6.60;2.63;;;;;;;;;;5075699;28;20214;-73
2021/09/13 03:44:43;;;;;;;6.77;2.93;;;;;;;;;;5072383;28;20725;-72
2021/09/13 03:47:09;;;;;;;7.43;3.23;;;;;;;;;;5076671;28;20312;-72
2021/09/13 03:49:35;;;;;;;12.37;3.70;;;;;;;;;;5076659;28;20265;-73
2021/09/13 03:52:02;;;;;;;8.27;3.00;;;;;;;;;;5078366;28;20247;-72
2021/09/13 03:54:28;;;;;;;8.80;3.50;;;;;;;;;;5075065;28;20219;-73
2021/09/13 03:56:55;;;;;;;10.53;3.13;;;;;;;;;;5074381;28;20270;-73
2021/09/13 03:59:22;;;;;;;11.33;3.17;;;;;;;;;;5073193;28;20688;-73
2021/09/13 04:01:49;;;;;;;9.67;3.40;;;;;;;;;;5073162;28;20586;-73
2021/09/13 04:04:16;;;;;;;8.43;3.47;;;;;;;;;;5073782;28;20212;-73
2021/09/13 04:06:46;;;;;;;5.63;2.70;;;;;;;;;;5074746;28;20294;-73
2021/09/13 04:11:58;;;;;;;8.63;3.20;;;;;;;;;;5073729;28;20217;-73
2021/09/13 04:14:27;;;;;;;11.63;4.03;;;;;;;;;;5074411;28;20222;-73
2021/09/13 04:16:55;;;;;;;12.80;3.60;;;;;;;;;;5073217;28;20317;-73
2021/09/13 04:19:22;;;;;;;5.97;3.70;;;;;;;;;;5073911;28;20232;-73
2021/09/13 04:21:49;;;;;;;8.90;4.00;;;;;;;;;;5075194;28;20315;-73
2021/09/13 04:24:16;;;;;;;8.40;4.90;;;;;;;;;;5075233;28;20218;-73
2021/09/13 04:26:42;;;;;;;8.47;4.67;;;;;;;;;;5074578;28;20218;-73
2021/09/13 04:29:09;;;;;;;7.97;5.20;;;;;;;;;;5075396;28;20210;-73
2021/09/13 04:31:37;;;;;;;11.68;6.25;;;;;;;;;;5071216;28;20446;-73
2021/09/13 04:34:03;;;;;;;15.60;5.77;;;;;;;;;;5074694;28;20274;-73
2021/09/13 04:36:30;;;;;;;11.10;5.77;;;;;;;;;;5073391;28;20235;-73
2021/09/13 04:38:56;;;;;;;10.07;5.23;;;;;;;;;;5073968;28;20210;-73
2021/09/13 04:41:23;;;;;;;8.00;4.87;;;;;;;;;;5074010;28;20260;-73
2021/09/13 04:43:49;;;;;;;8.63;4.30;;;;;;;;;;5073301;28;20901;-73
2021/09/13 04:46:16;;;;;;;10.93;4.80;;;;;;;;;;5073221;28;20268;-73
2021/09/13 04:48:43;;;;;;;8.70;4.80;;;;;;;;;;5074200;28;20266;-73
2021/09/13 04:51:10;;;;;;;10.33;4.73;;;;;;;;;;5075168;28;20553;-73
2021/09/13 04:53:36;;;;;;;10.03;4.70;;;;;;;;;;5074242;28;20214;-73
2021/09/13 04:56:02;;;;;;;7.60;4.70;;;;;;;;;;5074384;28;20282;-73
2021/09/13 04:58:29;;;;;;;11.17;4.90;;;;;;;;;;5073883;28;20212;-73
2021/09/13 05:00:55;;;;;;;8.10;4.77;;;;;;;;;;5073062;28;21188;-73
2021/09/13 05:03:22;;;;;;;6.50;4.70;;;;;;;;;;5073018;28;20338;-73
2021/09/13 05:05:49;;;;;;;9.77;4.87;;;;;;;;;;5072323;28;20221;-73
2021/09/13 05:08:16;;;;;;;11.60;5.67;;;;;;;;;;5073798;28;20267;-73
2021/09/13 05:10:42;;;;;;;7.70;4.70;;;;;;;;;;5075735;28;20214;-73
2021/09/13 05:13:08;;;;;;;14.67;5.87;;;;;;;;;;5077502;28;20212;-73
2021/09/13 05:15:35;;;;;;;11.43;5.67;;;;;;;;;;5075096;28;20239;-73
2021/09/13 05:18:01;;;;;;;9.40;5.10;;;;;;;;;;5076265;28;20233;-73
2021/09/13 05:20:28;;;;;;;8.50;5.13;;;;;;;;;;5074956;28;20301;-73
2021/09/13 05:22:55;;;;;;;11.67;5.90;;;;;;;;;;5077781;28;20227;-73
2021/09/13 05:25:22;;;;;;;10.90;5.13;;;;;;;;;;5079022;28;20262;-74
2021/09/13 05:27:48;;;;;;;9.73;4.53;;;;;;;;;;5076806;28;20210;-73
2021/09/13 05:30:15;;;;;;;15.27;5.33;;;;;;;;;;5077341;28;20210;-73
2021/09/13 05:32:42;;;;;;;10.80;5.40;;;;;;;;;;5076851;28;20295;-73
2021/09/13 05:35:09;;;;;;;10.73;5.23;;;;;;;;;;5078359;28;20227;-73
2021/09/13 05:37:35;;;;;;;15.43;4.50;;;;;;;;;;5077016;28;20235;-73
2021/09/13 05:40:04;;;;;;;11.23;5.30;;;;;;;;;;5077412;28;20288;-73
2021/09/13 05:42:30;;;;;;;10.40;4.60;;;;;;;;;;5077159;28;20652;-73
2021/09/13 05:44:57;;;;;;;9.70;4.60;;;;;;;;;;5077391;28;20225;-73
2021/09/13 05:47:23;;;;;;;9.47;4.13;;;;;;;;;;5075723;28;20230;-73
2021/09/13 05:49:49;;;;;;;8.80;4.23;;;;;;;;;;5076129;28;20281;-73
2021/09/13 05:52:16;;;;;;;11.50;4.30;;;;;;;;;;5078473;28;20295;-73
2021/09/13 05:54:42;;;;;;;10.43;3.97;;;;;;;;;;5076365;28;20610;-73
2021/09/13 05:57:10;;;;;;;7.83;4.33;;;;;;;;;;5078324;28;20331;-73
2021/09/13 05:59:36;;;;;;;10.70;4.30;;;;;;;;;;5076981;28;20234;-73
2021/09/13 06:02:03;;;;;;;11.33;4.30;;;;;;;;;;5075637;28;20304;-73
2021/09/13 06:04:32;;;;;;;6.20;4.50;;;;;;;;;;5076050;28;20267;-73
2021/09/13 06:06:58;;;;;;;8.77;3.80;;;;;;;;;;5065094;28;20210;-73
2021/09/13 06:09:25;;;;;;;10.23;4.33;;;;;;;;;;5076596;28;20221;-73
2021/09/13 06:11:51;;;;;;;11.07;4.13;;;;;;;;;;5074165;28;20210;-73
2021/09/13 06:14:19;;;;;;;6.67;4.37;;;;;;;;;;5074369;28;20283;-73
2021/09/13 06:16:45;;;;;;;16.40;5.37;;;;;;;;;;5075551;28;20229;-73
2021/09/13 06:19:12;;;;;;;10.53;4.90;;;;;;;;;;5074176;28;20210;-73
2021/09/13 06:21:38;;;;;;;9.17;4.63;;;;;;;;;;5074711;28;20239;-73
2021/09/13 06:24:05;;;;;;;7.83;4.20;;;;;;;;;;5073924;28;20218;-73
2021/09/13 06:26:31;;;;;;;9.93;4.63;;;;;;;;;;5075166;28;20637;-73
2021/09/13 06:28:58;;;;;;;10.03;4.17;;;;;;;;;;5076395;28;20216;-73
2021/09/13 06:31:26;;;;;;;7.97;4.70;;;;;;;;;;5072272;28;20657;-73
2021/09/13 06:33:52;;;;;;;6.97;4.00;;;;;;;;;;5075723;28;20218;-73
2021/09/13 06:36:18;;;;;;;6.93;3.80;;;;;;;;;;5070677;28;20219;-73
2021/09/13 06:38:45;;;;;;;7.73;3.43;;;;;;;;;;5074921;28;20586;-72
2021/09/13 06:41:12;;;;;;;7.17;3.10;;;;;;;;;;5073942;28;20242;-72
2021/09/13 06:43:40;;;;;;;6.07;3.43;;;;;;;;;;5074546;28;20226;-72
2021/09/13 06:46:11;;;;;;;7.40;3.53;;;;;;;;;;5071634;28;20303;-72
2021/09/13 06:48:42;;;;;;;9.07;3.17;;;;;;;;;;5073031;28;20574;-72
2021/09/13 06:51:08;;;;;;;9.63;3.40;;;;;;;;;;5073341;28;20212;-73
2021/09/13 06:53:35;;;;;;;5.53;3.33;;;;;;;;;;5073998;28;20219;-74
2021/09/13 06:56:04;;;;;;;6.73;2.53;;;;;;;;;;5074044;28;20216;-74
2021/09/13 06:58:30;;;;;;;4.53;3.47;;;;;;;;;;5074724;28;20313;-74
2021/09/13 07:00:57;;;;;;;6.83;3.63;;;;;;;;;;5072833;28;20793;-74
2021/09/13 07:03:24;;;;;;;11.00;3.43;;;;;;;;;;5074554;28;20696;-74
2021/09/13 07:05:52;;;;;;;10.83;3.77;;;;;;;;;;5073378;28;20627;-73
2021/09/13 07:08:19;;;;;;;7.60;3.60;;;;;;;;;;5074653;28;20264;-73
2021/09/13 07:10:48;;;;;;;7.67;3.77;;;;;;;;;;5073726;28;20701;-74
2021/09/13 07:13:15;;;;;;;11.60;4.57;;;;;;;;;;5073647;28;20224;-73
2021/09/13 07:15:41;;;;;;;7.70;3.30;;;;;;;;;;5071175;28;20221;-74
2021/09/13 07:18:08;;;;;;;5.87;3.43;;;;;;;;;;5073119;28;20503;-74
2021/09/13 07:20:35;;;;;;;6.87;4.00;;;;;;;;;;5071984;28;20286;-74
2021/09/13 07:23:02;;;;;;;8.67;3.93;;;;;;;;;;5073734;28;20218;-73
2021/09/13 07:25:29;;;;;;;12.83;4.53;;;;;;;;;;5072107;28;20221;-74
2021/09/13 07:27:55;;;;;;;9.83;4.60;;;;;;;;;;5075089;28;20214;-74
2021/09/13 07:30:22;;;;;;;14.53;4.77;;;;;;;;;;5073131;28;20745;-74
2021/09/13 07:32:48;;;;;;;10.03;4.33;;;;;;;;;;5073871;28;20292;-74
2021/09/13 07:35:15;;;;;;;10.47;4.40;;;;;;;;;;5071965;28;20226;-72
2021/09/13 07:37:41;;;;;;;9.27;4.13;;;;;;;;;;5070866;28;20334;-73
2021/09/13 07:40:11;;;;;;;10.60;5.07;;;;;;;;;;5073934;28;20232;-72
2021/09/13 07:42:38;;;;;;;9.50;4.17;;;;;;;;;;5073623;28;20286;-72
2021/09/13 07:45:06;;;;;;;12.50;4.07;;;;;;;;;;5074046;28;20211;-73
2021/09/13 07:47:33;;;;;;;13.97;4.60;;;;;;;;;;5072252;28;20242;-74
2021/09/13 07:49:59;;;;;;;9.27;4.50;;;;;;;;;;5072121;28;20700;-73
2021/09/13 07:52:26;;;;;;;9.43;3.27;;;;;;;;;;5073535;28;20835;-74
2021/09/13 07:54:53;;;;;;;10.17;3.73;;;;;;;;;;5072501;28;20235;-74
2021/09/13 07:57:21;;;;;;;6.23;4.47;;;;;;;;;;5072436;28;20290;-74
2021/09/13 07:59:47;;;;;;;16.17;4.33;;;;;;;;;;5072081;28;20218;-74
2021/09/13 08:02:14;;;;;;;6.53;3.47;;;;;;;;;;5073517;28;20613;-74
2021/09/13 08:04:41;;;;;;;13.03;3.80;;;;;;;;;;5072070;28;20352;-74
2021/09/13 08:07:08;;;;;;;8.90;4.87;;;;;;;;;;5073257;28;20277;-74
2021/09/13 08:09:34;;;;;;;7.77;3.90;;;;;;;;;;5074208;28;20206;-74
2021/09/13 08:12:01;;;;;;;8.80;3.30;;;;;;;;;;5074534;28;20218;-74
2021/09/13 08:14:29;;;;;;;10.00;3.23;;;;;;;;;;5073049;28;20240;-74
2021/09/13 08:16:55;;;;;;;7.47;2.50;;;;;;;;;;5070599;28;20286;-74
2021/09/13 08:19:22;;;;;;;7.53;2.73;;;;;;;;;;5072682;28;20737;-74
2021/09/13 08:21:48;;;;;;;7.07;2.60;;;;;;;;;;5071499;28;20626;-74
2021/09/13 08:24:14;;;;;;;5.80;2.70;;;;;;;;;;5073743;28;20215;-74
2021/09/13 08:26:41;;;;;;;6.43;2.50;;;;;;;;;;5071117;28;20227;-73
2021/09/13 08:29:13;;;;;;;13.90;3.00;;;;;;;;;;5071665;28;20902;-73
2021/09/13 08:31:41;;;;;;;13.53;3.03;;;;;;;;;;5072301;28;20330;-73
2021/09/13 08:34:07;;;;;;;6.97;2.63;;;;;;;;;;5071639;28;20217;-73
2021/09/13 08:36:33;;;;;;;8.53;2.37;;;;;;;;;;5072085;28;20288;-73
2021/09/13 08:39:00;;;;;;;8.87;2.60;;;;;;;;;;5072071;28;20278;-73
2021/09/13 08:41:26;;;;;;;10.67;2.50;;;;;;;;;;5071718;28;20233;-73
2021/09/13 08:43:53;;;;;;;9.30;2.63;;;;;;;;;;5073554;28;20290;-72
2021/09/13 08:46:24;;;;;;;10.37;2.30;;;;;;;;;;5076500;28;20658;-72
2021/09/13 08:48:56;;;;;;;7.37;2.30;;;;;;;;;;5076353;28;20651;-73
2021/09/13 08:54:09;;;;;;;9.77;2.30;;;;;;;;;;5076497;28;20574;-73
2021/09/13 08:56:39;;;;;;;7.87;2.47;;;;;;;;;;5077570;28;20216;-73
2021/09/13 08:59:07;;;;;;;7.73;2.60;;;;;;;;;;5077203;28;20205;-73
2021/09/13 09:01:34;;;;;;;10.50;2.17;;;;;;;;;;5076310;28;20245;-73
2021/09/13 09:04:03;;;;;;;12.23;2.30;;;;;;;;;;5077400;28;20584;-73
2021/09/13 09:06:32;;;;;;;6.83;1.80;;;;;;;;;;5075542;28;20270;-73
2021/09/13 09:09:00;;;;;;;9.07;2.70;;;;;;;;;;5078336;28;20583;-73
2021/09/13 09:11:26;;;;;;;4.73;1.80;;;;;;;;;;5078137;28;20214;-73
2021/09/13 09:13:54;;;;;;;8.60;2.07;;;;;;;;;;5076705;28;20235;-73
2021/09/13 09:16:20;;;;;;;7.97;1.87;;;;;;;;;;5074478;28;20217;-73
2021/09/13 09:18:48;;;;;;;7.40;2.30;;;;;;;;;;5074572;28;20393;-73
2021/09/13 09:21:29;;;;;;;5.23;1.93;;;;;;;;;;5074544;28;20236;-73
2021/09/13 09:23:57;;;;;;;8.30;2.23;;;;;;;;;;5077050;28;20223;-73
2021/09/13 09:26:24;;;;;;;7.07;1.80;;;;;;;;;;5075739;28;20208;-73
2021/09/13 09:28:51;;;;;;;6.87;2.43;;;;;;;;;;5077621;28;20213;-73
2021/09/13 09:31:35;;;;;;;8.00;2.10;;;;;;;;;;5076565;28;20278;-73
2021/09/13 09:34:12;;;;;;;7.23;2.23;;;;;;;;;;5075499;28;20216;-73
2021/09/13 09:36:40;;;;;;;6.03;1.40;;;;;;;;;;5075039;28;20751;-73
2021/09/13 09:39:11;;;;;;;10.60;2.10;;;;;;;;;;5075613;28;20265;-73
2021/09/13 09:41:42;;;;;;;7.97;1.80;;;;;;;;;;5073410;28;20233;-73
2021/09/13 09:44:08;;;;;;;8.10;1.83;;;;;;;;;;5073900;28;20205;-73
2021/09/13 09:46:38;;;;;;;9.47;2.20;;;;;;;;;;5073155;28;20235;-73
2021/09/13 09:49:05;;;;;;;5.27;1.80;;;;;;;;;;5073224;28;20570;-73
2021/09/13 09:51:33;;;;;;;5.10;1.77;;;;;;;;;;5074933;28;20208;-73
2021/09/13 09:54:09;;;;;;;4.97;1.70;;;;;;;;;;5074624;28;20217;-73
2021/09/13 09:56:36;;;;;;;4.53;1.70;;;;;;;;;;5072153;28;20208;-73
2021/09/13 09:59:04;;;;;;;4.00;1.80;;;;;;;;;;5075129;28;20672;-73
2021/09/13 10:01:36;;;;;;;7.00;1.87;;;;;;;;;;5074398;28;20270;-73
2021/09/13 10:04:13;;;;;;;2.57;1.27;;;;;;;;;;5076649;28;20217;-73
2021/09/13 10:06:41;;;;;;;3.50;1.30;;;;;;;;;;5075569;28;20209;-73
2021/09/13 10:09:09;;;;;;;5.93;1.40;;;;;;;;;;5073360;28;20213;-73
2021/09/13 10:11:39;;;;;;;4.77;1.37;;;;;;;;;;5074769;28;20612;-73
2021/09/13 10:14:06;;;;;;;3.80;1.37;;;;;;;;;;5075101;28;20222;-73
2021/09/13 10:16:32;;;;;;;2.70;1.40;;;;;;;;;;5072660;28;20350;-73
2021/09/13 10:18:59;;;;;;;3.57;1.30;;;;;;;;;;5073908;28;20671;-73
2021/09/13 10:21:25;;;;;;;2.73;1.20;;;;;;;;;;5072680;28;20911;-73
2021/09/13 10:23:53;;;;;;;3.33;1.10;;;;;;;;;;5075513;28;20259;-73
2021/09/13 10:26:21;;;;;;;1.97;1.00;;;;;;;;;;5072843;28;20209;-73
2021/09/13 10:29:24;;;;;;;2.53;1.43;;;;;;;;;;5076041;28;20214;-73
2021/09/13 10:32:05;;;;;;;6.90;1.77;;;;;;;;;;5073246;28;21146;-73
2021/09/13 10:34:34;;;;;;;5.00;1.10;;;;;;;;;;5075130;28;20663;-73
2021/09/13 10:37:19;;;;;;;4.70;1.30;;;;;;;;;;5074631;28;20631;-73
2021/09/13 10:39:57;;;;;;;4.97;1.20;;;;;;;;;;5074268;28;20210;-73
2021/09/13 10:42:33;;;;;;;5.10;1.17;;;;;;;;;;5073547;28;20346;-73
2021/09/13 10:45:09;;;;;;;2.50;1.17;;;;;;;;;;5074287;28;20258;-73
2021/09/13 10:47:37;;;;;;;7.27;1.80;;;;;;;;;;5073851;28;20221;-73
2021/09/13 10:50:18;;;;;;;3.87;1.27;;;;;;;;;;5072810;28;20280;-73
2021/09/13 10:52:46;;;;;;;7.60;2.10;;;;;;;;;;5073684;28;20258;-73
2021/09/13 10:55:41;;;;;;;5.97;1.40;;;;;;;;;;5073642;28;20220;-73
2021/09/13 10:58:12;;;;;;;3.90;1.30;;;;;;;;;;5073720;28;20263;-73
2021/09/13 11:01:00;;;;;;;8.03;1.60;;;;;;;;;;5073712;28;20244;-73
2021/09/13 11:03:36;;;;;;;3.47;1.33;;;;;;;;;;5071409;28;20546;-73
2021/09/13 11:06:04;;;;;;;4.23;1.30;;;;;;;;;;5075269;28;20293;-73
2021/09/13 11:08:31;;;;;;;3.57;1.20;;;;;;;;;;5075084;28;20248;-73
2021/09/13 11:10:58;;;;;;;5.00;1.50;;;;;;;;;;5073564;28;20251;-73
2021/09/13 11:13:26;;;;;;;4.40;1.57;;;;;;;;;;5072802;28;20221;-73
2021/09/13 11:15:52;;;;;;;4.90;1.60;;;;;;;;;;5073617;28;20537;-73
2021/09/13 11:18:31;;;;;;;4.17;1.60;;;;;;;;;;5073377;28;20350;-73
2021/09/13 11:21:13;;;;;;;3.97;1.10;;;;;;;;;;5074740;28;20219;-73
2021/09/13 11:23:39;;;;;;;4.13;1.60;;;;;;;;;;5074382;28;20316;-73
2021/09/13 11:26:06;;;;;;;6.80;1.57;;;;;;;;;;5072050;28;20220;-73
2021/09/13 11:28:33;;;;;;;6.57;1.63;;;;;;;;;;5070283;28;20275;-73
2021/09/13 11:31:00;;;;;;;3.80;1.57;;;;;;;;;;5073214;28;20805;-73
2021/09/13 11:33:26;;;;;;;4.53;1.57;;;;;;;;;;5074044;28;20238;-73
2021/09/13 11:35:55;;;;;;;6.63;2.00;;;;;;;;;;5072320;28;20790;-73
2021/09/13 11:38:21;;;;;;;4.87;1.27;;;;;;;;;;5072936;28;20319;-73
2021/09/13 11:40:48;;;;;;;5.80;1.50;;;;;;;;;;5072131;28;20210;-73
2021/09/13 11:43:14;;;;;;;5.70;2.07;;;;;;;;;;5072169;28;20238;-73
2021/09/13 11:45:42;;;;;;;4.87;1.40;;;;;;;;;;5072660;28;20217;-73
2021/09/13 11:48:08;;;;;;;6.53;1.93;;;;;;;;;;5073042;28;20298;-73
2021/09/13 11:50:35;;;;;;;5.27;1.60;;;;;;;;;;5073166;28;20267;-73
2021/09/13 11:53:11;;;;;;;6.43;2.03;;;;;;;;;;5074148;28;20291;-73
2021/09/13 11:55:38;;;;;;;6.60;1.67;;;;;;;;;;5072560;28;20205;-73
2021/09/13 11:58:07;;;;;;;3.33;1.60;;;;;;;;;;5073419;28;20212;-72
2021/09/13 12:00:35;;;;;;;3.73;1.60;;;;;;;;;;5070438;28;20245;-72
2021/09/13 12:03:05;;;;;;;4.93;1.60;;;;;;;;;;5073286;28;20234;-73
2021/09/13 12:05:33;;;;;;;3.93;1.60;;;;;;;;;;5072303;28;20649;-73
2021/09/13 12:08:02;;;;;;;4.77;1.40;;;;;;;;;;5073300;28;20220;-73
2021/09/13 12:10:31;;;;;;;4.50;1.50;;;;;;;;;;5071969;28;20210;-73
2021/09/13 12:13:01;;;;;;;4.00;1.40;;;;;;;;;;5073385;28;20611;-73
2021/09/13 12:15:31;;;;;;;4.33;1.57;;;;;;;;;;5075075;28;20910;-73
2021/09/13 12:17:58;;;;;;;4.07;1.80;;;;;;;;;;5073811;28;20351;-73
2021/09/13 12:20:31;;;;;;;6.63;1.60;;;;;;;;;;5071000;28;20209;-73
2021/09/13 12:23:01;;;;;;;3.67;1.60;;;;;;;;;;5071179;28;20222;-73
2021/09/13 12:25:28;;;;;;;5.00;1.70;;;;;;;;;;5070692;28;20705;-74
2021/09/13 12:27:59;;;;;;;4.77;1.83;;;;;;;;;;5074606;28;20217;-75
2021/09/13 12:30:28;;;;;;;4.17;1.70;;;;;;;;;;5074234;28;20213;-75
2021/09/13 12:32:59;;;;;;;4.70;1.43;;;;;;;;;;5072137;28;20957;-73
2021/09/13 12:35:37;;;;;;;3.27;1.43;;;;;;;;;;5072928;28;21337;-73
2021/09/13 12:38:05;;;;;;;3.77;1.47;;;;;;;;;;5072608;28;20256;-73
2021/09/13 12:40:32;;;;;;;11.70;2.33;;;;;;;;;;5073531;28;20289;-73
2021/09/13 12:43:00;;;;;;;6.43;2.07;;;;;;;;;;5072451;28;20253;-73
2021/09/13 12:45:29;;;;;;;5.67;2.10;;;;;;;;;;5071601;28;20321;-73
2021/09/13 12:48:00;;;;;;;4.07;1.70;;;;;;;;;;5072006;28;20234;-73
2021/09/13 12:50:36;;;;;;;6.50;2.27;;;;;;;;;;5073438;28;20215;-75
2021/09/13 12:53:09;;;;;;;3.10;1.47;;;;;;;;;;5072743;28;20593;-75
2021/09/13 12:55:39;;;;;;;3.83;1.17;;;;;;;;;;5070891;28;20206;-73
2021/09/13 12:58:24;;;;;;;1.43;0.90;;;;;;;;;;5071414;28;20222;-73
2021/09/13 13:00:51;;;;;;;3.40;1.47;;;;;;;;;;5073136;28;20822;-73
2021/09/13 13:03:18;;;;;;;3.07;1.13;;;;;;;;;;5072252;28;20247;-73
2021/09/13 13:05:50;;;;;;;4.47;2.17;;;;;;;;;;5070787;28;20216;-73
2021/09/13 13:08:17;;;;;;;3.90;1.70;;;;;;;;;;5072811;28;20208;-73
2021/09/13 13:10:44;;;;;;;3.50;1.47;;;;;;;;;;5072147;28;20219;-73
2021/09/13 13:13:11;;;;;;;3.13;1.70;;;;;;;;;;5072444;28;20303;-73
2021/09/13 13:15:38;;;;;;;3.80;1.50;;;;;;;;;;5071206;28;20274;-73
2021/09/13 13:18:11;;;;;;;3.47;1.40;;;;;;;;;;5071450;28;21170;-73
2021/09/13 13:20:37;;;;;;;3.93;1.53;;;;;;;;;;5069967;28;20212;-73
2021/09/13 13:23:06;;;;;;;3.00;1.00;;;;;;;;;;5072864;28;20236;-73
2021/09/13 13:25:32;;;;;;;4.73;1.37;;;;;;;;;;5071413;28;20265;-73
2021/09/13 13:27:59;;;;;;;3.70;1.37;;;;;;;;;;5073717;28;20215;-73
2021/09/13 13:30:25;;;;;;;3.33;1.17;;;;;;;;;;5072335;28;20223;-73
2021/09/13 13:32:52;;;;;;;3.60;1.53;;;;;;;;;;5076755;28;20301;-72
2021/09/13 13:35:18;;;;;;;3.70;1.20;;;;;;;;;;5077408;28;20215;-71
2021/09/13 13:37:44;;;;;;;2.97;1.40;;;;;;;;;;5075677;28;20239;-72
2021/09/13 13:40:13;;;;;;;4.60;1.20;;;;;;;;;;5076830;28;20662;-72
2021/09/13 13:42:39;;;;;;;6.50;1.90;;;;;;;;;;5075933;28;20233;-72
2021/09/13 13:45:06;;;;;;;4.63;1.30;;;;;;;;;;5076029;28;20244;-72
2021/09/13 13:47:33;;;;;;;3.53;1.30;;;;;;;;;;5074578;28;20235;-72
2021/09/13 13:50:00;;;;;;;4.97;0.93;;;;;;;;;;5077860;28;20228;-72
2021/09/13 13:52:26;;;;;;;5.17;1.40;;;;;;;;;;5076896;28;20215;-72
2021/09/13 13:54:52;;;;;;;6.83;1.90;;;;;;;;;;5077478;28;20661;-73
2021/09/13 13:57:20;;;;;;;2.97;1.40;;;;;;;;;;5076259;28;20685;-73
2021/09/13 13:59:47;;;;;;;3.50;1.37;;;;;;;;;;5076130;28;20288;-72
2021/09/13 14:02:13;;;;;;;2.80;1.40;;;;;;;;;;5076834;28;20717;-71
2021/09/13 14:04:39;;;;;;;4.63;1.17;;;;;;;;;;5073902;28;20213;-71
2021/09/13 14:07:07;;;;;;;3.63;1.20;;;;;;;;;;5076819;28;20248;-71
2021/09/13 14:09:34;;;;;;;3.37;1.20;;;;;;;;;;5076513;28;20316;-71
2021/09/13 14:12:00;;;;;;;3.53;1.27;;;;;;;;;;5077548;28;20219;-71
2021/09/13 14:14:28;;;;;;;1.37;0.80;;;;;;;;;;5074944;28;20648;-71
2021/09/13 14:16:55;;;;;;;2.90;1.17;;;;;;;;;;5076292;28;20758;-70
2021/09/13 14:19:21;;;;;;;3.17;1.20;;;;;;;;;;5074843;28;20214;-70
2021/09/13 14:21:47;;;;;;;2.03;1.10;;;;;;;;;;5076417;28;20214;-71
2021/09/13 14:24:14;;;;;;;3.80;1.33;;;;;;;;;;5074028;28;20256;-71
2021/09/13 14:26:40;;;;;;;3.57;1.50;;;;;;;;;;5075791;28;20206;-71
2021/09/13 14:29:06;;;;;;;2.77;1.17;;;;;;;;;;5075917;28;20214;-72
2021/09/13 14:31:35;;;;;;;2.50;1.07;;;;;;;;;;5075890;28;20243;-71
2021/09/13 14:34:02;;;;;;;3.23;1.33;;;;;;;;;;5077560;28;20219;-71
2021/09/13 14:36:29;;;;;;;3.07;1.33;;;;;;;;;;5075980;28;20358;-71
2021/09/13 14:38:55;;;;;;;2.73;1.10;;;;;;;;;;5074638;28;20574;-72
2021/09/13 14:41:22;;;;;;;3.33;1.17;;;;;;;;;;5076106;28;20218;-71
2021/09/13 14:43:48;;;;;;;3.50;1.53;;;;;;;;;;5075001;28;20317;-71
2021/09/13 14:46:14;;;;;;;2.47;1.17;;;;;;;;;;5077588;28;20256;-71
2021/09/13 14:48:45;;;;;;;3.83;1.27;;;;;;;;;;5075243;28;20610;-72
2021/09/13 14:51:11;;;;;;;2.67;1.10;;;;;;;;;;5075996;28;20298;-71